createdAt,value
2023-01-29T00:02:00.200Z,6.80
2023-01-29T00:04:27.225Z,6.43
2023-01-29T00:06:53.988Z,6.17
2023-01-29T00:09:20.747Z,6.00
2023-01-29T00:11:48.060Z,5.67
2023-01-29T00:14:15.026Z,5.97
2023-01-29T00:16:41.791Z,7.73
2023-01-29T00:19:08.770Z,5.33
2023-01-29T00:21:35.527Z,5.87
2023-01-29T00:24:02.528Z,5.80
2023-01-29T00:26:29.679Z,5.83
2023-01-29T00:29:02.812Z,6.63
2023-01-29T00:31:30.278Z,7.17
2023-01-29T00:33:57.445Z,8.10
2023-01-29T00:36:25.889Z,6.50
2023-01-29T00:39:00.871Z,8.77
2023-01-29T00:41:51.574Z,9.30
2023-01-29T00:44:37.858Z,8.00
2023-01-29T00:47:25.936Z,11.63
2023-01-29T00:49:52.921Z,5.87
2023-01-29T00:52:25.441Z,5.03
2023-01-29T00:54:54.391Z,7.20
2023-01-29T00:57:21.491Z,6.10
2023-01-29T00:59:48.228Z,4.93
2023-01-29T01:02:33.677Z,5.03
2023-01-29T01:05:03.143Z,6.47
2023-01-29T01:07:30.726Z,8.10
2023-01-29T01:10:17.090Z,9.07
2023-01-29T01:12:44.368Z,6.90
2023-01-29T01:15:11.952Z,7.20
2023-01-29T01:17:38.689Z,6.93
2023-01-29T01:20:06.216Z,7.63
2023-01-29T01:22:32.892Z,10.63
2023-01-29T01:24:59.570Z,5.97
2023-01-29T01:27:26.583Z,5.07
2023-01-29T01:29:53.294Z,6.27
2023-01-29T01:32:20.238Z,6.17
2023-01-29T01:34:46.900Z,6.20
2023-01-29T01:37:13.769Z,7.40
2023-01-29T01:39:40.715Z,6.10
2023-01-29T01:42:13.297Z,6.60
2023-01-29T01:44:59.528Z,6.43
2023-01-29T01:47:47.931Z,6.03
2023-01-29T01:50:19.249Z,7.20
2023-01-29T01:52:53.032Z,8.13
2023-01-29T01:55:24.921Z,6.37
2023-01-29T01:57:59.401Z,6.87
2023-01-29T02:00:27.133Z,5.97
2023-01-29T02:03:13.454Z,7.07
2023-01-29T02:05:59.959Z,5.87
2023-01-29T02:09:05.931Z,8.50
2023-01-29T02:11:32.688Z,5.93
2023-01-29T02:13:59.773Z,5.67
2023-01-29T02:16:26.659Z,5.27
2023-01-29T02:18:53.647Z,6.10
2023-01-29T02:21:32.494Z,7.67
2023-01-29T02:24:23.414Z,6.63
2023-01-29T02:27:07.328Z,9.00
2023-01-29T02:29:39.879Z,5.20
2023-01-29T02:32:29.843Z,6.63
2023-01-29T02:35:32.303Z,5.50
2023-01-29T02:38:07.852Z,6.70
2023-01-29T02:41:00.623Z,6.20
2023-01-29T02:43:44.352Z,6.20
2023-01-29T02:46:32.735Z,6.03
2023-01-29T02:49:07.415Z,6.97
2023-01-29T02:51:42.407Z,6.77
2023-01-29T02:54:23.307Z,5.87
2023-01-29T02:56:59.685Z,7.13
2023-01-29T02:59:36.150Z,8.03
2023-01-29T03:02:08.732Z,6.77
2023-01-29T03:04:42.646Z,7.70
2023-01-29T03:07:37.863Z,7.67
2023-01-29T03:10:13.530Z,6.03
2023-01-29T03:12:42.896Z,7.17
2023-01-29T03:15:17.024Z,7.50
2023-01-29T03:18:07.781Z,5.50
2023-01-29T03:20:40.272Z,6.10
2023-01-29T03:23:18.862Z,7.97
2023-01-29T03:26:04.138Z,8.10
2023-01-29T03:28:51.209Z,7.47
2023-01-29T03:31:37.805Z,5.47
2023-01-29T03:34:16.398Z,6.30
2023-01-29T03:36:55.993Z,5.87
2023-01-29T03:39:25.579Z,7.47
2023-01-29T03:42:03.183Z,7.00
2023-01-29T03:44:40.449Z,6.90
2023-01-29T03:47:17.369Z,8.27
2023-01-29T03:49:47.068Z,5.07
2023-01-29T03:52:20.785Z,7.67
2023-01-29T03:55:10.781Z,8.20
2023-01-29T03:57:46.315Z,7.80
2023-01-29T04:00:40.444Z,5.83
2023-01-29T04:03:18.250Z,6.67
2023-01-29T04:05:51.661Z,6.57
2023-01-29T04:08:30.868Z,5.57
2023-01-29T04:11:01.956Z,6.00
2023-01-29T04:13:33.958Z,7.50
2023-01-29T04:16:04.691Z,7.43
2023-01-29T04:18:31.476Z,6.43
2023-01-29T04:20:59.792Z,7.70
2023-01-29T04:23:28.068Z,6.10
2023-01-29T04:26:32.212Z,7.47
2023-01-29T04:29:19.392Z,8.43
2023-01-29T04:32:08.396Z,7.93
2023-01-29T04:34:52.322Z,9.30
2023-01-29T04:37:53.292Z,8.53
2023-01-29T04:40:42.743Z,7.73
2023-01-29T04:43:32.752Z,9.67
2023-01-29T04:46:10.399Z,7.07
2023-01-29T04:49:02.147Z,6.23
2023-01-29T04:51:56.040Z,6.97
2023-01-29T04:54:40.739Z,7.07
2023-01-29T04:57:26.708Z,5.53
2023-01-29T05:00:10.353Z,8.30
2023-01-29T05:02:40.029Z,7.13
2023-01-29T05:05:08.589Z,9.53
2023-01-29T05:07:38.253Z,8.07
2023-01-29T05:10:08.507Z,7.33
2023-01-29T05:12:37.866Z,7.70
2023-01-29T05:15:12.589Z,7.60
2023-01-29T05:17:39.420Z,8.20
2023-01-29T05:20:07.515Z,7.80
2023-01-29T05:22:38.131Z,7.93
2023-01-29T05:25:10.993Z,8.13
2023-01-29T05:27:56.234Z,6.77
2023-01-29T05:30:23.160Z,8.70
2023-01-29T05:32:50.976Z,8.80
2023-01-29T05:35:18.035Z,8.67
2023-01-29T05:37:44.794Z,7.53
2023-01-29T05:40:11.865Z,8.20
2023-01-29T05:42:38.831Z,8.33
2023-01-29T05:45:06.160Z,9.83
2023-01-29T05:47:32.902Z,8.03
2023-01-29T05:49:59.612Z,10.87
2023-01-29T05:52:26.575Z,8.27
2023-01-29T05:54:53.550Z,10.73
2023-01-29T05:57:20.312Z,8.90
2023-01-29T05:59:47.042Z,10.00
2023-01-29T06:02:13.771Z,10.33
2023-01-29T06:04:40.716Z,9.70
2023-01-29T06:07:07.505Z,10.37
2023-01-29T06:09:34.454Z,10.30
2023-01-29T06:12:01.228Z,8.17
2023-01-29T06:14:28.196Z,7.97
2023-01-29T06:16:55.135Z,8.70
2023-01-29T06:19:21.869Z,12.37
2023-01-29T06:21:48.820Z,9.80
2023-01-29T06:24:15.731Z,11.30
2023-01-29T06:26:42.518Z,11.57
2023-01-29T06:29:09.248Z,11.77
2023-01-29T06:31:39.154Z,12.00
2023-01-29T06:34:07.727Z,11.60
2023-01-29T06:36:35.022Z,10.57
2023-01-29T06:39:02.040Z,11.57
2023-01-29T06:41:28.810Z,12.03
2023-01-29T06:43:55.845Z,11.50
2023-01-29T06:46:22.843Z,9.30
2023-01-29T06:48:49.631Z,12.17
2023-01-29T06:51:16.670Z,9.80
2023-01-29T06:53:46.078Z,9.67
2023-01-29T06:56:13.343Z,9.80
2023-01-29T06:58:40.139Z,10.27
2023-01-29T07:01:09.393Z,8.50
2023-01-29T07:03:36.455Z,10.77
2023-01-29T07:06:04.062Z,9.83
2023-01-29T07:08:30.924Z,9.60
2023-01-29T07:11:01.385Z,11.13
2023-01-29T07:13:28.393Z,11.03
2023-01-29T07:15:58.191Z,11.77
2023-01-29T07:18:24.936Z,10.30
2023-01-29T07:20:51.943Z,11.03
2023-01-29T07:23:18.743Z,11.47
2023-01-29T07:25:46.201Z,10.87
2023-01-29T07:28:12.870Z,9.97
2023-01-29T07:30:39.593Z,11.63
2023-01-29T07:33:08.879Z,10.50
2023-01-29T07:35:43.224Z,9.63
2023-01-29T07:38:11.566Z,11.60
2023-01-29T07:40:38.417Z,8.80
2023-01-29T07:43:07.355Z,11.43
2023-01-29T07:45:36.222Z,7.43
2023-01-29T07:48:05.268Z,7.63
2023-01-29T07:50:33.660Z,9.00
2023-01-29T07:53:00.832Z,8.20
2023-01-29T07:55:36.657Z,9.17
2023-01-29T07:58:05.387Z,9.37
2023-01-29T08:00:32.906Z,8.40
2023-01-29T08:03:26.110Z,8.37
2023-01-29T08:06:53.816Z,7.20
2023-01-29T08:09:20.501Z,7.93
2023-01-29T08:11:47.510Z,8.27
2023-01-29T08:14:14.348Z,8.90
2023-01-29T08:16:41.119Z,8.87
2023-01-29T08:19:07.870Z,9.37
2023-01-29T08:21:34.814Z,8.53
2023-01-29T08:26:28.182Z,7.03
2023-01-29T08:28:55.209Z,8.73
2023-01-29T08:31:22.061Z,7.97
2023-01-29T08:33:49.582Z,10.37
2023-01-29T08:36:16.279Z,8.17
2023-01-29T08:38:43.005Z,6.07
2023-01-29T08:41:09.982Z,6.63
2023-01-29T08:43:40.577Z,6.83
2023-01-29T08:46:08.720Z,6.23
2023-01-29T08:48:35.850Z,6.53
2023-01-29T08:51:03.071Z,6.40
2023-01-29T08:53:30.536Z,5.70
2023-01-29T08:55:57.307Z,5.33
2023-01-29T08:58:24.025Z,5.60
2023-01-29T09:00:50.757Z,6.87
2023-01-29T09:03:17.748Z,5.47
2023-01-29T09:05:44.573Z,5.73
2023-01-29T09:08:11.565Z,7.40
2023-01-29T09:10:38.283Z,6.50
2023-01-29T09:13:05.534Z,6.77
2023-01-29T09:15:32.527Z,6.13
2023-01-29T09:18:04.448Z,6.63
2023-01-29T09:20:31.236Z,7.60
2023-01-29T09:22:59.178Z,8.43
2023-01-29T09:25:26.266Z,7.33
2023-01-29T09:27:54.809Z,8.33
2023-01-29T09:30:22.077Z,8.17
2023-01-29T09:32:53.627Z,7.33
2023-01-29T09:35:24.282Z,7.80
2023-01-29T09:37:52.121Z,7.13
2023-01-29T09:40:41.154Z,6.73
2023-01-29T09:43:19.127Z,9.27
2023-01-29T09:45:57.117Z,9.70
2023-01-29T09:48:29.205Z,7.03
2023-01-29T09:50:57.861Z,7.23
2023-01-29T09:53:51.870Z,7.57
2023-01-29T09:56:23.718Z,6.60
2023-01-29T09:58:50.561Z,7.73
2023-01-29T10:01:40.889Z,7.70
2023-01-29T10:04:35.632Z,6.97
2023-01-29T10:07:20.426Z,7.97
2023-01-29T10:10:25.975Z,5.90
2023-01-29T10:13:34.775Z,6.00
2023-01-29T10:16:07.240Z,6.37
2023-01-29T10:19:01.112Z,6.27
2023-01-29T10:22:03.980Z,6.23
2023-01-29T10:24:37.175Z,6.50
2023-01-29T10:27:12.234Z,6.63
2023-01-29T10:29:44.427Z,6.13
2023-01-29T10:32:20.914Z,6.57
2023-01-29T10:34:57.721Z,6.37
2023-01-29T10:37:39.804Z,6.47
2023-01-29T10:40:22.158Z,6.20
2023-01-29T10:43:13.017Z,7.47
2023-01-29T10:45:46.418Z,9.10
2023-01-29T10:48:55.135Z,7.57
2023-01-29T10:51:44.099Z,7.17
2023-01-29T10:54:40.537Z,10.40
2023-01-29T10:57:26.331Z,8.90
2023-01-29T11:00:12.861Z,6.03
2023-01-29T11:02:48.956Z,6.40
2023-01-29T11:05:39.351Z,6.87
2023-01-29T11:08:16.104Z,6.50
2023-01-29T11:11:17.417Z,5.30
2023-01-29T11:14:22.853Z,7.67
2023-01-29T11:16:51.203Z,5.77
2023-01-29T11:20:07.277Z,6.43
2023-01-29T11:22:34.531Z,5.67
2023-01-29T11:25:20.470Z,5.93
2023-01-29T11:27:56.746Z,5.30
2023-01-29T11:30:25.879Z,5.27
2023-01-29T11:33:14.400Z,5.93
2023-01-29T11:35:41.371Z,5.27
2023-01-29T11:38:21.553Z,5.10
2023-01-29T11:40:48.498Z,5.63
2023-01-29T11:43:27.502Z,5.60
2023-01-29T11:46:00.578Z,5.50
2023-01-29T11:48:44.313Z,7.23
2023-01-29T11:51:20.375Z,5.03
2023-01-29T11:53:56.806Z,13.47
2023-01-29T12:00:26.357Z,9.87
2023-01-29T12:02:54.770Z,6.47
2023-01-29T12:05:25.479Z,5.73
2023-01-29T12:07:55.521Z,6.27
2023-01-29T12:10:34.509Z,9.87
2023-01-29T12:13:16.827Z,5.47
2023-01-29T12:15:43.815Z,5.33
2023-01-29T12:18:22.430Z,5.00
2023-01-29T12:21:05.415Z,5.53
2023-01-29T12:24:06.372Z,5.30
2023-01-29T12:26:43.401Z,5.20
2023-01-29T12:29:41.301Z,4.20
2023-01-29T12:32:39.612Z,6.77
2023-01-29T12:35:22.697Z,6.67
2023-01-29T12:38:16.458Z,17.87
2023-01-29T12:40:55.646Z,6.13
2023-01-29T12:43:48.511Z,5.90
2023-01-29T12:46:39.927Z,7.00
2023-01-29T12:49:15.673Z,6.47
2023-01-29T12:51:55.891Z,6.43
2023-01-29T12:54:42.284Z,6.57
2023-01-29T12:57:19.814Z,9.10
2023-01-29T12:59:53.716Z,6.80
2023-01-29T13:02:40.234Z,7.57
2023-01-29T13:05:31.567Z,7.47
2023-01-29T13:08:05.059Z,7.73
2023-01-29T13:10:53.976Z,8.63
2023-01-29T13:13:38.816Z,24.63
2023-01-29T13:16:11.150Z,13.73
2023-01-29T13:18:59.500Z,11.83
2023-01-29T13:21:39.589Z,12.83
2023-01-29T13:24:15.349Z,8.67
2023-01-29T13:26:48.607Z,18.27
2023-01-29T13:29:26.731Z,32.60
2023-01-29T13:31:58.654Z,8.97
2023-01-29T13:34:33.864Z,8.07
2023-01-29T13:37:28.144Z,7.63
2023-01-29T13:39:56.746Z,9.33
2023-01-29T13:42:49.163Z,8.37
2023-01-29T13:45:25.812Z,7.23
2023-01-29T13:47:53.571Z,8.60
2023-01-29T13:50:34.785Z,8.10
2023-01-29T13:53:04.266Z,8.17
2023-01-29T13:55:31.649Z,7.33
2023-01-29T13:58:02.869Z,8.03
2023-01-29T14:00:35.730Z,8.10
2023-01-29T14:03:05.608Z,10.27
2023-01-29T14:05:33.761Z,9.20
2023-01-29T14:08:26.923Z,8.80
2023-01-29T14:11:15.676Z,7.60
2023-01-29T14:13:47.453Z,7.13
2023-01-29T14:16:14.422Z,5.83
2023-01-29T14:18:58.919Z,8.37
2023-01-29T14:21:33.733Z,6.67
2023-01-29T14:24:13.120Z,8.60
2023-01-29T14:26:44.025Z,15.57
2023-01-29T14:29:21.331Z,10.23
2023-01-29T14:31:54.781Z,7.40
2023-01-29T14:34:31.744Z,7.33
2023-01-29T14:37:40.971Z,14.47
2023-01-29T14:40:19.867Z,13.23
2023-01-29T14:42:46.840Z,7.70
2023-01-29T14:45:25.104Z,12.40
2023-01-29T14:48:04.353Z,24.60
2023-01-29T14:50:34.816Z,8.40
2023-01-29T14:53:23.495Z,7.40
2023-01-29T14:56:11.059Z,8.73
2023-01-29T14:58:40.574Z,9.83
2023-01-29T15:01:35.570Z,10.77
2023-01-29T15:04:13.973Z,9.63
2023-01-29T15:06:57.267Z,8.67
2023-01-29T15:09:36.753Z,11.03
2023-01-29T15:12:20.902Z,9.90
2023-01-29T15:15:19.064Z,8.53
2023-01-29T15:18:02.011Z,8.20
2023-01-29T15:20:32.109Z,12.80
2023-01-29T15:23:00.002Z,9.50
2023-01-29T15:25:30.976Z,10.13
2023-01-29T15:27:58.880Z,7.80
2023-01-29T15:30:33.447Z,13.50
2023-01-29T15:33:02.133Z,9.73
2023-01-29T15:35:34.398Z,11.63
2023-01-29T15:38:17.497Z,10.63
2023-01-29T15:41:00.979Z,8.87
2023-01-29T15:43:28.713Z,12.97
2023-01-29T15:46:05.802Z,11.00
2023-01-29T15:48:39.108Z,12.70
2023-01-29T15:51:16.312Z,17.80
2023-01-29T15:53:48.818Z,12.83
2023-01-29T15:56:19.816Z,11.00
2023-01-29T15:58:49.476Z,12.50
2023-01-29T16:01:16.799Z,10.63
2023-01-29T16:03:44.516Z,9.77
2023-01-29T16:06:11.765Z,14.53
2023-01-29T16:08:40.473Z,13.17
2023-01-29T16:11:08.327Z,16.67
2023-01-29T16:13:40.005Z,10.97
2023-01-29T16:16:21.050Z,12.40
2023-01-29T16:18:59.578Z,11.47
2023-01-29T16:21:37.423Z,12.40
2023-01-29T16:24:16.114Z,13.93
2023-01-29T16:26:46.546Z,12.83
2023-01-29T16:29:16.650Z,14.83
2023-01-29T16:31:46.052Z,14.23
2023-01-29T16:34:31.590Z,19.37
2023-01-29T16:37:37.195Z,17.13
2023-01-29T16:40:16.319Z,19.57
2023-01-29T16:42:43.398Z,119.40
2023-01-29T16:45:30.308Z,58.60
2023-01-29T16:48:02.212Z,20.63
2023-01-29T16:50:43.239Z,14.67
2023-01-29T16:53:21.436Z,15.40
2023-01-29T16:55:50.417Z,17.53
2023-01-29T16:58:24.511Z,17.27
2023-01-29T17:00:55.174Z,15.67
2023-01-29T17:03:25.348Z,14.47
2023-01-29T17:05:52.571Z,12.90
2023-01-29T17:08:30.659Z,14.07
2023-01-29T17:10:58.130Z,14.87
2023-01-29T17:13:37.380Z,14.67
2023-01-29T17:16:20.513Z,18.23
2023-01-29T17:18:47.295Z,16.77
2023-01-29T17:21:14.017Z,19.63
2023-01-29T17:23:40.737Z,15.47
2023-01-29T17:26:10.193Z,20.90
2023-01-29T17:28:37.449Z,22.07
2023-01-29T17:31:07.000Z,19.30
2023-01-29T17:33:35.714Z,14.17
2023-01-29T17:36:02.499Z,27.07
2023-01-29T17:38:29.214Z,19.57
2023-01-29T17:41:04.598Z,22.03
2023-01-29T17:43:31.672Z,24.43
2023-01-29T17:45:58.551Z,16.33
2023-01-29T17:48:28.942Z,26.17
2023-01-29T17:51:06.180Z,19.43
2023-01-29T17:53:45.368Z,17.90
2023-01-29T17:56:29.581Z,17.93
2023-01-29T17:58:58.681Z,14.83
2023-01-29T18:01:25.483Z,18.67
2023-01-29T18:03:53.360Z,16.20
2023-01-29T18:06:29.484Z,16.73
2023-01-29T18:08:56.739Z,14.60
2023-01-29T18:11:28.287Z,16.00
2023-01-29T18:13:56.073Z,20.87
2023-01-29T18:16:28.669Z,17.60
2023-01-29T18:22:43.109Z,15.17
2023-01-29T18:25:16.420Z,19.43
2023-01-29T18:27:43.696Z,16.47
2023-01-29T18:30:24.148Z,17.53
2023-01-29T18:32:50.909Z,15.87
2023-01-29T18:35:18.254Z,15.43
2023-01-29T18:37:45.233Z,14.30
2023-01-29T18:40:17.265Z,16.27
2023-01-29T18:42:47.929Z,15.07
2023-01-29T18:45:15.634Z,20.17
2023-01-29T18:47:42.624Z,16.83
2023-01-29T18:50:12.089Z,16.67
2023-01-29T18:52:44.996Z,34.43
2023-01-29T18:55:12.775Z,18.07
2023-01-29T18:58:28.308Z,18.17
2023-01-29T19:00:27.264Z,14.13
2023-01-29T19:02:54.049Z,20.37
2023-01-29T19:05:23.879Z,16.53
2023-01-29T19:07:52.171Z,23.50
2023-01-29T19:10:19.432Z,19.67
2023-01-29T19:12:46.273Z,15.30
2023-01-29T19:15:13.032Z,17.33
2023-01-29T19:17:40.000Z,16.77
2023-01-29T19:20:07.521Z,16.00
2023-01-29T19:22:34.308Z,16.70
2023-01-29T19:25:01.470Z,13.57
2023-01-29T19:27:30.474Z,14.47
2023-01-29T19:29:59.527Z,16.93
2023-01-29T19:32:28.837Z,17.53
2023-01-29T19:34:55.658Z,18.87
2023-01-29T19:37:22.724Z,16.77
2023-01-29T19:39:49.611Z,18.17
2023-01-29T19:42:17.161Z,15.83
2023-01-29T19:44:45.415Z,14.73
2023-01-29T19:47:12.389Z,15.50
2023-01-29T19:49:40.491Z,14.60
2023-01-29T19:52:15.086Z,14.80
2023-01-29T19:54:46.728Z,16.33
2023-01-29T19:57:13.712Z,18.60
2023-01-29T19:59:40.378Z,16.33
2023-01-29T20:02:07.221Z,17.27
2023-01-29T20:04:34.259Z,15.53
2023-01-29T20:07:01.088Z,17.27
2023-01-29T20:09:29.409Z,14.10
2023-01-29T20:11:56.532Z,15.70
2023-01-29T20:14:23.226Z,16.77
2023-01-29T20:16:50.168Z,17.00
2023-01-29T20:19:16.916Z,17.47
2023-01-29T20:21:47.261Z,16.23
2023-01-29T20:24:14.694Z,14.53
2023-01-29T20:26:41.777Z,16.03
2023-01-29T20:29:08.476Z,18.30
2023-01-29T20:31:35.231Z,16.70
2023-01-29T20:34:02.305Z,16.90
2023-01-29T20:36:29.089Z,17.47
2023-01-29T20:38:55.854Z,17.80
2023-01-29T20:41:22.934Z,18.17
2023-01-29T20:43:50.998Z,15.50
2023-01-29T20:46:18.044Z,14.03
2023-01-29T20:48:45.135Z,17.47
2023-01-29T20:51:17.699Z,16.27
2023-01-29T20:53:46.313Z,14.70
2023-01-29T20:56:14.697Z,14.10
2023-01-29T20:58:41.740Z,13.43
2023-01-29T21:01:10.863Z,13.03
2023-01-29T21:03:39.249Z,18.10
2023-01-29T21:06:07.497Z,16.83
2023-01-29T21:08:35.572Z,15.73
2023-01-29T21:11:03.622Z,15.17
2023-01-29T21:13:30.463Z,13.67
2023-01-29T21:15:57.428Z,15.17
2023-01-29T21:18:26.264Z,14.23
2023-01-29T21:20:54.021Z,13.90
2023-01-29T21:23:21.647Z,14.93
2023-01-29T21:25:48.412Z,15.07
2023-01-29T21:28:16.017Z,17.90
2023-01-29T21:30:43.243Z,15.73
2023-01-29T21:33:10.047Z,17.10
2023-01-29T21:35:37.848Z,16.13
2023-01-29T21:38:05.111Z,14.43
2023-01-29T21:40:32.164Z,14.50
2023-01-29T21:43:15.455Z,15.80
2023-01-29T21:45:43.441Z,15.60
2023-01-29T21:48:11.961Z,16.93
2023-01-29T21:50:38.825Z,15.17
2023-01-29T21:53:05.878Z,15.50
2023-01-29T21:55:32.924Z,15.80
2023-01-29T21:58:00.438Z,13.23
2023-01-29T22:00:27.674Z,17.13
2023-01-29T22:02:54.532Z,19.33
2023-01-29T22:05:21.410Z,14.47
2023-01-29T22:07:49.486Z,13.90
2023-01-29T22:10:17.866Z,12.23
2023-01-29T22:12:45.106Z,17.83
2023-01-29T22:15:12.496Z,16.00
2023-01-29T22:17:41.273Z,14.93
2023-01-29T22:20:30.891Z,16.83
2023-01-29T22:22:59.392Z,13.97
2023-01-29T22:25:26.837Z,15.80
2023-01-29T22:27:53.836Z,16.17
2023-01-29T22:30:21.767Z,16.27
2023-01-29T22:32:49.024Z,12.27
2023-01-29T22:35:16.028Z,15.10
2023-01-29T22:37:42.765Z,16.10
2023-01-29T22:40:10.373Z,14.30
2023-01-29T22:42:37.331Z,15.33
2023-01-29T22:45:04.274Z,14.13
2023-01-29T22:47:33.028Z,14.97
2023-01-29T22:50:00.103Z,13.07
2023-01-29T22:52:28.116Z,13.23
2023-01-29T22:54:54.872Z,13.97
2023-01-29T22:57:21.758Z,12.83
2023-01-29T22:59:48.756Z,16.17
2023-01-29T23:02:15.593Z,16.27
2023-01-29T23:04:42.431Z,15.20
2023-01-29T23:07:09.649Z,12.00
2023-01-29T23:09:36.367Z,16.97
2023-01-29T23:12:03.355Z,13.33
2023-01-29T23:14:30.164Z,13.53
2023-01-29T23:16:56.906Z,16.97
2023-01-29T23:19:23.924Z,13.20
2023-01-29T23:21:50.677Z,16.40
2023-01-29T23:24:17.400Z,12.83
2023-01-29T23:27:02.708Z,15.20
2023-01-29T23:29:29.485Z,15.70
2023-01-29T23:31:56.434Z,12.17
2023-01-29T23:34:23.208Z,13.93
2023-01-29T23:36:50.231Z,16.40
2023-01-29T23:39:17.311Z,15.10
2023-01-29T23:41:44.327Z,14.47
2023-01-29T23:44:11.478Z,16.00
2023-01-29T23:46:38.457Z,13.73
2023-01-29T23:49:05.185Z,15.10
2023-01-29T23:51:32.238Z,15.33
2023-01-29T23:53:58.973Z,15.13
2023-01-29T23:56:26.061Z,18.23
2023-01-29T23:58:54.789Z,12.93
